createdAt,value
2018-05-16T00:00:11.315Z,14.90
2018-05-16T00:02:45.859Z,14.90
2018-05-16T00:05:14.021Z,14.90
2018-05-16T00:07:57.953Z,14.90
2018-05-16T00:10:28.789Z,14.80
2018-05-16T00:12:57.050Z,14.80
2018-05-16T00:15:26.888Z,14.80
2018-05-16T00:17:55.144Z,14.80
2018-05-16T00:20:38.343Z,14.70
2018-05-16T00:23:06.500Z,14.60
2018-05-16T00:25:34.903Z,14.60
2018-05-16T00:28:03.024Z,14.50
2018-05-16T00:30:32.367Z,14.40
2018-05-16T00:33:00.472Z,14.40
2018-05-16T00:35:28.597Z,14.40
2018-05-16T00:37:56.722Z,14.30
2018-05-16T00:40:26.613Z,14.20
2018-05-16T00:42:54.886Z,14.10
2018-05-16T00:45:23.821Z,14.00
2018-05-16T00:47:52.873Z,14.00
2018-05-16T00:50:21.110Z,14.00
2018-05-16T00:52:50.335Z,13.90
2018-05-16T00:55:18.463Z,13.80
2018-05-16T00:57:47.513Z,13.70
2018-05-16T01:00:15.645Z,13.70
2018-05-16T01:02:43.880Z,13.70
2018-05-16T01:05:13.617Z,13.60
2018-05-16T01:07:42.512Z,13.50
2018-05-16T01:10:11.386Z,13.50
2018-05-16T01:12:41.407Z,13.40
2018-05-16T01:15:10.457Z,13.40
2018-05-16T01:17:38.592Z,13.40
2018-05-16T01:20:06.780Z,13.30
2018-05-16T01:22:34.942Z,13.30
2018-05-16T01:25:03.056Z,13.30
2018-05-16T01:27:31.293Z,13.20
2018-05-16T01:29:59.584Z,13.20
2018-05-16T01:32:28.476Z,13.10
2018-05-16T01:34:56.590Z,13.10
2018-05-16T01:37:24.715Z,13.10
2018-05-16T01:39:55.588Z,13.00
2018-05-16T01:42:24.274Z,13.00
2018-05-16T01:44:52.403Z,12.90
2018-05-16T01:47:20.644Z,12.90
2018-05-16T01:49:48.760Z,12.80
2018-05-16T01:52:16.899Z,12.80
2018-05-16T01:54:45.872Z,12.70
2018-05-16T01:57:13.983Z,12.70
2018-05-16T01:59:43.116Z,12.60
2018-05-16T02:02:11.982Z,12.50
2018-05-16T02:04:40.141Z,12.50
2018-05-16T02:07:09.042Z,12.40
2018-05-16T02:09:37.281Z,12.40
2018-05-16T02:12:07.684Z,12.40
2018-05-16T02:14:37.309Z,12.30
2018-05-16T02:17:05.545Z,12.30
2018-05-16T02:19:33.797Z,12.30
2018-05-16T02:22:01.924Z,12.20
2018-05-16T02:24:30.039Z,12.20
2018-05-16T02:26:58.179Z,12.20
2018-05-16T02:29:30.655Z,12.10
2018-05-16T02:31:59.489Z,12.10
2018-05-16T02:34:30.267Z,12.10
2018-05-16T02:36:58.367Z,12.10
2018-05-16T02:39:27.262Z,12.00
2018-05-16T02:41:56.147Z,12.00
2018-05-16T02:44:25.043Z,12.00
2018-05-16T02:46:54.304Z,12.00
2018-05-16T02:49:22.447Z,11.90
2018-05-16T02:51:50.587Z,11.90
2018-05-16T02:54:19.246Z,11.90
2018-05-16T02:56:47.293Z,11.90
2018-05-16T02:59:15.406Z,11.80
2018-05-16T03:01:43.692Z,11.80
2018-05-16T03:04:11.823Z,11.80
2018-05-16T03:06:39.977Z,11.80
2018-05-16T03:09:09.741Z,11.80
2018-05-16T03:11:37.857Z,11.80
2018-05-16T03:14:06.056Z,11.70
2018-05-16T03:16:34.177Z,11.70
2018-05-16T03:19:03.067Z,11.70
2018-05-16T03:21:31.954Z,11.60
2018-05-16T03:24:00.830Z,11.60
2018-05-16T03:26:30.229Z,11.60
2018-05-16T03:28:58.496Z,11.50
2018-05-16T03:31:26.593Z,11.50
2018-05-16T03:33:55.519Z,11.50
2018-05-16T03:36:23.682Z,11.50
2018-05-16T03:38:53.653Z,11.50
2018-05-16T03:41:23.349Z,11.50
2018-05-16T03:43:51.556Z,11.50
2018-05-16T03:46:20.560Z,11.40
2018-05-16T03:48:49.462Z,11.40
2018-05-16T03:51:17.590Z,11.40
2018-05-16T03:53:45.714Z,11.40
2018-05-16T03:56:13.851Z,11.40
2018-05-16T03:58:53.868Z,11.30
2018-05-16T04:01:47.834Z,11.40
2018-05-16T04:04:16.743Z,11.40
2018-05-16T04:06:44.869Z,11.30
2018-05-16T04:09:13.213Z,11.30
2018-05-16T04:11:41.338Z,11.30
2018-05-16T04:14:09.952Z,11.30
2018-05-16T04:16:38.103Z,11.30
2018-05-16T04:19:06.227Z,11.40
2018-05-16T04:21:35.416Z,11.40
2018-05-16T04:24:03.574Z,11.40
2018-05-16T04:26:33.998Z,11.40
2018-05-16T04:29:02.933Z,11.50
2018-05-16T04:31:31.101Z,11.50
2018-05-16T04:33:59.993Z,11.70
2018-05-16T04:36:29.037Z,11.90
2018-05-16T04:38:57.150Z,11.90
2018-05-16T04:41:26.648Z,12.20
2018-05-16T04:43:56.484Z,12.30
2018-05-16T04:46:25.382Z,12.40
2018-05-16T04:48:53.553Z,12.40
2018-05-16T04:51:22.550Z,12.60
2018-05-16T04:53:51.606Z,12.50
2018-05-16T04:56:19.797Z,12.60
2018-05-16T04:58:49.249Z,12.70
2018-05-16T05:01:17.352Z,12.70
2018-05-16T05:03:46.998Z,12.80
2018-05-16T05:06:15.906Z,12.90
2018-05-16T05:08:44.019Z,12.90
2018-05-16T05:11:12.133Z,12.90
2018-05-16T05:13:41.024Z,13.10
2018-05-16T05:16:09.189Z,13.00
2018-05-16T05:18:38.141Z,13.20
2018-05-16T05:21:06.971Z,13.30
2018-05-16T05:23:35.154Z,13.30
2018-05-16T05:26:04.036Z,13.50
2018-05-16T05:28:32.918Z,13.70
2018-05-16T05:31:01.815Z,13.80
2018-05-16T05:33:31.170Z,14.10
2018-05-16T05:35:59.295Z,14.10
2018-05-16T05:38:29.526Z,14.50
2018-05-16T05:40:58.581Z,14.50
2018-05-16T05:43:27.516Z,14.70
2018-05-16T05:45:56.284Z,15.00
2018-05-16T05:48:24.569Z,14.90
2018-05-16T05:50:53.472Z,15.00
2018-05-16T05:53:22.338Z,15.40
2018-05-16T05:55:50.574Z,15.40
2018-05-16T05:58:18.700Z,15.80
2018-05-16T06:00:47.612Z,16.60
2018-05-16T06:03:15.754Z,16.50
2018-05-16T06:05:44.655Z,16.50
2018-05-16T06:08:13.529Z,16.30
2018-05-16T06:10:41.765Z,16.20
2018-05-16T06:13:10.523Z,16.00
2018-05-16T06:15:38.640Z,15.60
2018-05-16T06:18:06.909Z,15.40
2018-05-16T06:20:35.058Z,15.30
2018-05-16T06:23:03.162Z,15.20
2018-05-16T06:25:31.278Z,15.20
2018-05-16T06:28:00.168Z,15.30
2018-05-16T06:30:28.418Z,15.20
2018-05-16T06:32:59.093Z,15.40
2018-05-16T06:35:27.239Z,15.40
2018-05-16T06:37:56.410Z,15.60
2018-05-16T06:40:28.322Z,15.90
2018-05-16T06:42:56.452Z,15.90
2018-05-16T06:45:26.086Z,16.10
2018-05-16T06:47:55.547Z,16.30
2018-05-16T06:50:24.077Z,16.20
2018-05-16T06:52:52.950Z,16.60
2018-05-16T06:55:22.953Z,16.90
2018-05-16T06:57:51.173Z,16.90
2018-05-16T07:00:19.436Z,17.10
2018-05-16T07:02:48.299Z,17.40
2018-05-16T07:05:16.913Z,17.40
2018-05-16T07:07:45.797Z,17.90
2018-05-16T07:10:14.685Z,18.20
2018-05-16T07:12:43.584Z,18.50
2018-05-16T07:15:12.473Z,18.80
2018-05-16T07:17:41.364Z,19.10
2018-05-16T07:20:11.643Z,19.30
2018-05-16T07:22:39.790Z,19.30
2018-05-16T07:25:07.934Z,19.50
2018-05-16T07:27:36.066Z,19.50
2018-05-16T07:30:04.187Z,19.50
2018-05-16T07:32:32.425Z,19.40
2018-05-16T07:35:00.204Z,19.10
2018-05-16T07:37:28.330Z,19.10
2018-05-16T07:39:57.675Z,19.10
2018-05-16T07:42:25.819Z,19.00
2018-05-16T07:44:54.326Z,19.00
2018-05-16T07:47:22.435Z,19.00
2018-05-16T07:49:50.564Z,19.10
2018-05-16T07:52:18.928Z,19.30
2018-05-16T07:54:47.250Z,19.50
2018-05-16T07:57:15.408Z,19.60
2018-05-16T07:59:43.600Z,19.90
2018-05-16T08:02:11.745Z,20.10
2018-05-16T08:04:39.868Z,20.30
2018-05-16T08:07:07.980Z,20.20
2018-05-16T08:09:36.110Z,20.10
2018-05-16T08:12:04.453Z,20.10
2018-05-16T08:14:32.577Z,20.10
2018-05-16T08:17:00.700Z,20.10
2018-05-16T08:19:30.339Z,20.00
2018-05-16T08:21:58.499Z,20.00
2018-05-16T08:24:26.742Z,20.00
2018-05-16T08:26:54.935Z,20.00
2018-05-16T08:29:23.812Z,20.10
2018-05-16T08:31:52.901Z,20.10
2018-05-16T08:34:21.046Z,20.30
2018-05-16T08:36:49.218Z,20.50
2018-05-16T08:39:18.469Z,20.70
2018-05-16T08:41:46.645Z,20.90
2018-05-16T08:44:15.585Z,22.00
2018-05-16T08:46:43.719Z,22.00
2018-05-16T08:49:12.705Z,22.40
2018-05-16T08:51:41.587Z,22.80
2018-05-16T08:54:09.749Z,22.80
2018-05-16T08:56:37.877Z,22.90
2018-05-16T08:59:06.089Z,22.80
2018-05-16T09:01:34.297Z,22.70
2018-05-16T09:04:04.698Z,22.40
2018-05-16T09:06:32.873Z,22.40
2018-05-16T09:09:02.485Z,22.80
2018-05-16T09:11:30.748Z,22.80
2018-05-16T09:13:58.870Z,23.10
2018-05-16T09:16:28.364Z,23.10
2018-05-16T09:18:58.156Z,22.90
2018-05-16T09:21:26.342Z,22.80
2018-05-16T09:23:55.232Z,22.50
2018-05-16T09:26:24.121Z,22.50
2018-05-16T09:28:52.996Z,22.50
2018-05-16T09:31:21.881Z,22.60
2018-05-16T09:33:50.488Z,22.60
2018-05-16T09:36:20.985Z,22.60
2018-05-16T09:38:50.607Z,22.70
2018-05-16T09:41:20.714Z,22.70
2018-05-16T09:43:49.240Z,23.00
2018-05-16T09:46:20.351Z,23.30
2018-05-16T09:48:48.469Z,23.30
2018-05-16T09:51:16.805Z,23.70
2018-05-16T09:53:44.925Z,24.00
2018-05-16T09:56:13.184Z,24.10
2018-05-16T09:58:42.182Z,24.50
2018-05-16T10:01:12.000Z,24.40
2018-05-16T10:03:40.115Z,24.60
2018-05-16T10:06:08.219Z,24.30
2018-05-16T10:08:37.104Z,24.30
2018-05-16T10:11:05.998Z,24.60
2018-05-16T10:13:34.868Z,24.70
2018-05-16T10:16:03.772Z,24.70
2018-05-16T10:18:32.652Z,24.50
2018-05-16T10:21:00.762Z,24.50
2018-05-16T10:26:04.930Z,24.00
2018-05-16T10:28:33.129Z,23.70
2018-05-16T10:31:01.370Z,23.50
2018-05-16T10:33:29.639Z,23.30
2018-05-16T10:35:57.762Z,23.10
2018-05-16T10:38:27.384Z,22.90
2018-05-16T10:40:56.378Z,22.80
2018-05-16T10:43:25.257Z,22.80
2018-05-16T10:45:54.138Z,22.80
2018-05-16T10:48:22.740Z,22.80
2018-05-16T10:50:50.937Z,22.90
2018-05-16T10:53:19.028Z,22.80
2018-05-16T10:55:47.367Z,22.90
2018-05-16T10:58:15.481Z,23.20
2018-05-16T11:00:43.575Z,23.20
2018-05-16T11:03:12.671Z,23.40
2018-05-16T11:05:41.710Z,23.70
2018-05-16T11:08:09.952Z,24.00
2018-05-16T11:10:38.062Z,24.10
2018-05-16T11:13:06.176Z,24.20
2018-05-16T11:15:34.277Z,24.40
2018-05-16T11:18:02.399Z,24.40
2018-05-16T11:20:30.527Z,24.50
2018-05-16T11:22:59.708Z,24.30
2018-05-16T11:25:29.767Z,24.30
2018-05-16T11:27:58.655Z,24.60
2018-05-16T11:30:27.521Z,24.90
2018-05-16T11:32:56.115Z,24.90
2018-05-16T11:35:24.998Z,25.40
2018-05-16T11:37:54.502Z,25.40
2018-05-16T11:40:23.372Z,25.30
2018-05-16T11:42:51.473Z,25.30
2018-05-16T11:45:20.462Z,25.90
2018-05-16T11:47:49.363Z,25.90
2018-05-16T11:50:18.247Z,25.80
2018-05-16T11:52:47.130Z,25.70
2018-05-16T11:55:15.235Z,25.70
2018-05-16T11:57:43.335Z,25.80
2018-05-16T12:00:11.444Z,25.60
2018-05-16T12:02:39.570Z,25.40
2018-05-16T12:05:07.686Z,25.30
2018-05-16T12:07:36.511Z,25.20
2018-05-16T12:10:05.453Z,25.60
2018-05-16T12:12:33.571Z,25.60
2018-05-16T12:15:01.726Z,25.80
2018-05-16T12:17:31.077Z,25.60
2018-05-16T12:19:59.279Z,25.60
2018-05-16T12:22:27.399Z,25.70
2018-05-16T12:24:56.268Z,25.10
2018-05-16T12:27:26.496Z,25.00
2018-05-16T12:29:55.377Z,24.80
2018-05-16T12:32:25.520Z,24.70
2018-05-16T12:34:54.693Z,24.60
2018-05-16T12:37:23.522Z,24.70
2018-05-16T12:39:51.648Z,24.90
2018-05-16T12:42:20.359Z,25.00
2018-05-16T12:44:48.511Z,25.00
2018-05-16T12:47:16.617Z,25.40
2018-05-16T12:49:46.376Z,25.40
2018-05-16T12:52:15.553Z,25.20
2018-05-16T12:54:43.563Z,25.20
2018-05-16T12:57:14.447Z,25.30
2018-05-16T12:59:44.005Z,25.30
2018-05-16T13:02:12.362Z,25.40
2018-05-16T13:04:40.464Z,25.30
2018-05-16T13:07:09.980Z,24.70
2018-05-16T13:09:38.052Z,24.70
2018-05-16T13:12:07.468Z,24.10
2018-05-16T13:14:35.987Z,24.00
2018-05-16T13:17:04.882Z,23.00
2018-05-16T13:19:34.101Z,23.00
2018-05-16T13:22:03.919Z,22.70
2018-05-16T13:24:32.850Z,23.10
2018-05-16T13:27:01.181Z,23.10
2018-05-16T13:29:29.324Z,23.40
2018-05-16T13:31:57.636Z,23.60
2018-05-16T13:34:25.770Z,23.80
2018-05-16T13:36:53.871Z,23.80
2018-05-16T13:39:22.020Z,23.80
2018-05-16T13:41:50.147Z,23.70
2018-05-16T13:44:19.022Z,23.70
2018-05-16T13:46:48.818Z,23.80
2018-05-16T13:49:17.001Z,23.80
2018-05-16T13:51:45.277Z,23.90
2018-05-16T13:54:13.851Z,24.10
2018-05-16T13:56:43.272Z,24.50
2018-05-16T13:59:12.014Z,24.60
2018-05-16T14:01:40.159Z,24.80
2018-05-16T14:04:09.783Z,24.90
2018-05-16T14:06:37.912Z,24.70
2018-05-16T14:09:06.791Z,24.40
2018-05-16T14:11:34.935Z,24.40
2018-05-16T14:14:03.244Z,24.40
2018-05-16T14:16:31.445Z,24.60
2018-05-16T14:18:59.571Z,24.70
2018-05-16T14:21:27.690Z,24.60
2018-05-16T14:23:56.591Z,24.00
2018-05-16T14:26:24.686Z,23.90
2018-05-16T14:28:52.803Z,23.70
2018-05-16T14:31:20.917Z,23.30
2018-05-16T14:33:49.254Z,23.10
2018-05-16T14:36:17.550Z,23.00
2018-05-16T14:38:46.611Z,22.60
2018-05-16T14:41:14.825Z,22.60
2018-05-16T14:43:43.104Z,22.50
2018-05-16T14:46:11.968Z,22.70
2018-05-16T14:48:40.854Z,22.50
2018-05-16T14:51:10.279Z,22.40
2018-05-16T14:53:39.152Z,22.30
2018-05-16T14:56:08.048Z,22.30
2018-05-16T14:58:36.978Z,22.40
2018-05-16T15:01:05.938Z,22.10
2018-05-16T15:03:35.331Z,22.00
2018-05-16T15:06:03.432Z,22.00
2018-05-16T15:08:31.678Z,21.90
2018-05-16T15:11:00.574Z,22.10
2018-05-16T15:13:29.447Z,21.90
2018-05-16T15:15:57.636Z,21.90
2018-05-16T15:18:25.971Z,22.00
2018-05-16T15:20:54.128Z,22.20
2018-05-16T15:23:22.451Z,22.60
2018-05-16T15:25:50.635Z,22.30
2018-05-16T15:28:18.932Z,22.10
2018-05-16T15:30:49.091Z,21.70
2018-05-16T15:33:18.020Z,21.30
2018-05-16T15:35:47.859Z,21.30
2018-05-16T15:38:16.941Z,20.80
2018-05-16T15:40:45.152Z,20.80
2018-05-16T15:43:13.332Z,20.70
2018-05-16T15:45:41.451Z,20.40
2018-05-16T15:48:09.754Z,20.20
2018-05-16T15:50:38.627Z,20.30
2018-05-16T15:53:07.515Z,20.40
2018-05-16T15:55:35.748Z,20.40
2018-05-16T15:58:03.862Z,20.50
2018-05-16T16:00:33.035Z,20.30
2018-05-16T16:03:02.542Z,20.20
2018-05-16T16:05:31.443Z,20.20
2018-05-16T16:08:01.094Z,20.20
2018-05-16T16:10:29.960Z,20.40
2018-05-16T16:12:58.847Z,20.80
2018-05-16T16:15:29.280Z,20.90
2018-05-16T16:17:58.175Z,20.80
2018-05-16T16:20:26.638Z,20.70
2018-05-16T16:22:56.250Z,21.10
2018-05-16T16:25:25.301Z,20.90
2018-05-16T16:27:53.551Z,20.90
2018-05-16T16:30:23.422Z,20.80
2018-05-16T16:32:51.569Z,20.90
2018-05-16T16:35:19.808Z,20.90
2018-05-16T16:37:49.387Z,20.90
2018-05-16T16:40:17.574Z,20.90
2018-05-16T16:42:46.850Z,21.00
2018-05-16T16:45:15.086Z,21.40
2018-05-16T16:47:43.441Z,22.30
2018-05-16T16:50:12.361Z,24.40
2018-05-16T16:52:40.679Z,24.40
2018-05-16T16:55:08.789Z,25.40
2018-05-16T16:57:37.053Z,25.90
2018-05-16T17:00:07.760Z,25.70
2018-05-16T17:02:36.022Z,25.20
2018-05-16T17:05:04.128Z,24.90
2018-05-16T17:07:33.032Z,24.00
2018-05-16T17:10:01.928Z,23.90
2018-05-16T17:12:30.162Z,23.90
2018-05-16T17:14:58.889Z,23.70
2018-05-16T17:17:27.168Z,23.50
2018-05-16T17:19:58.005Z,23.50
2018-05-16T17:22:26.119Z,23.70
2018-05-16T17:24:55.000Z,23.50
2018-05-16T17:27:23.107Z,22.80
2018-05-16T17:29:51.251Z,22.10
2018-05-16T17:32:19.605Z,21.70
2018-05-16T17:34:47.727Z,21.20
2018-05-16T17:37:15.836Z,20.80
2018-05-16T17:39:44.080Z,20.60
2018-05-16T17:42:12.192Z,20.70
2018-05-16T17:44:40.405Z,20.60
2018-05-16T17:47:08.538Z,20.40
2018-05-16T17:49:36.962Z,20.00
2018-05-16T17:52:05.625Z,19.70
2018-05-16T17:54:33.802Z,19.30
2018-05-16T17:57:02.190Z,19.00
2018-05-16T17:59:30.425Z,18.80
2018-05-16T18:01:58.556Z,18.60
2018-05-16T18:04:28.358Z,18.30
2018-05-16T18:06:56.568Z,18.30
2018-05-16T18:09:25.530Z,18.10
2018-05-16T18:11:53.652Z,18.00
2018-05-16T18:14:33.768Z,18.00
2018-05-16T18:17:13.667Z,18.00
2018-05-16T18:19:41.796Z,17.90
2018-05-16T18:22:09.908Z,17.80
2018-05-16T18:24:38.217Z,17.70
2018-05-16T18:27:06.375Z,17.70
2018-05-16T18:29:35.529Z,17.60
2018-05-16T18:32:03.673Z,17.60
2018-05-16T18:34:31.807Z,17.50
2018-05-16T18:37:01.976Z,17.40
2018-05-16T18:39:30.989Z,17.30
2018-05-16T18:41:59.807Z,17.20
2018-05-16T18:44:28.124Z,17.10
2018-05-16T18:46:56.248Z,17.10
2018-05-16T18:49:24.409Z,17.00
2018-05-16T18:51:52.534Z,16.90
2018-05-16T18:54:21.376Z,16.80
2018-05-16T18:56:50.242Z,16.70
2018-05-16T18:59:19.215Z,16.70
2018-05-16T19:01:47.335Z,16.70
2018-05-16T19:04:15.458Z,16.70
2018-05-16T19:06:45.134Z,16.60
2018-05-16T19:09:13.259Z,16.60
2018-05-16T19:11:42.989Z,16.60
2018-05-16T19:14:11.982Z,16.60
2018-05-16T19:16:40.889Z,16.60
2018-05-16T19:19:09.047Z,16.60
2018-05-16T19:21:37.929Z,16.60
2018-05-16T19:24:06.943Z,16.50
2018-05-16T19:26:35.726Z,16.50
2018-05-16T19:29:04.586Z,16.40
2018-05-16T19:31:33.517Z,16.30
2018-05-16T19:34:01.708Z,16.30
2018-05-16T19:36:31.235Z,16.20
2018-05-16T19:38:59.374Z,16.20
2018-05-16T19:41:27.520Z,16.20
2018-05-16T19:43:56.435Z,16.00
2018-05-16T19:46:24.562Z,16.00
2018-05-16T19:48:52.674Z,15.90
2018-05-16T19:51:22.424Z,15.80
2018-05-16T19:53:51.046Z,15.80
2018-05-16T19:56:19.212Z,15.70
2018-05-16T19:58:50.145Z,15.60
2018-05-16T20:01:18.408Z,15.60
2018-05-16T20:03:47.650Z,15.60
2018-05-16T20:06:16.514Z,15.60
2018-05-16T20:08:46.133Z,15.50
2018-05-16T20:11:15.016Z,15.50
2018-05-16T20:13:43.180Z,15.50
2018-05-16T20:16:11.358Z,15.40
2018-05-16T20:18:39.448Z,15.30
2018-05-16T20:21:08.336Z,15.20
2018-05-16T20:23:37.010Z,15.20
2018-05-16T20:26:06.169Z,15.30
2018-05-16T20:28:35.546Z,15.30
2018-05-16T20:31:03.673Z,15.30
2018-05-16T20:33:33.345Z,15.00
2018-05-16T20:36:01.471Z,15.00
2018-05-16T20:38:30.606Z,14.50
2018-05-16T20:40:59.239Z,14.30
2018-05-16T20:43:28.879Z,14.20
2018-05-16T20:45:58.449Z,14.10
2018-05-16T20:48:26.661Z,14.10
2018-05-16T20:50:55.274Z,14.10
2018-05-16T20:53:23.430Z,14.10
2018-05-16T20:55:51.555Z,14.10
2018-05-16T20:58:19.766Z,14.00
2018-05-16T21:00:47.923Z,13.90
2018-05-16T21:03:17.008Z,13.80
2018-05-16T21:05:47.419Z,13.80
2018-05-16T21:08:34.812Z,13.80
2018-05-16T21:11:03.984Z,13.80
2018-05-16T21:13:31.707Z,13.80
2018-05-16T21:16:02.341Z,13.80
2018-05-16T21:18:29.952Z,13.80
2018-05-16T21:20:57.768Z,13.80
2018-05-16T21:23:26.942Z,13.80
2018-05-16T21:25:55.162Z,13.80
2018-05-16T21:28:24.129Z,13.60
2018-05-16T21:30:52.290Z,13.60
2018-05-16T21:33:20.513Z,13.50
2018-05-16T21:35:49.416Z,13.50
2018-05-16T21:38:19.013Z,13.40
2018-05-16T21:40:47.924Z,13.40
2018-05-16T21:43:16.246Z,13.40
2018-05-16T21:45:44.519Z,13.40
2018-05-16T21:48:12.729Z,13.40
2018-05-16T21:50:41.607Z,13.40
2018-05-16T21:53:10.510Z,13.40
2018-05-16T21:55:38.714Z,13.40
2018-05-16T21:58:06.875Z,13.40
2018-05-16T22:00:34.986Z,13.40
2018-05-16T22:03:04.099Z,13.40
2018-05-16T22:05:32.218Z,13.40
2018-05-16T22:08:00.331Z,13.50
2018-05-16T22:10:28.457Z,13.50
2018-05-16T22:12:57.577Z,13.50
2018-05-16T22:15:26.432Z,13.40
2018-05-16T22:17:55.304Z,13.40
2018-05-16T22:20:23.419Z,13.40
2018-05-16T22:22:51.552Z,13.40
2018-05-16T22:25:20.559Z,13.40
2018-05-16T22:27:49.535Z,13.40
2018-05-16T22:30:18.040Z,13.40
2018-05-16T22:32:54.004Z,13.40
2018-05-16T22:35:27.768Z,13.40
2018-05-16T22:38:03.103Z,13.40
2018-05-16T22:40:37.009Z,13.40
2018-05-16T22:43:04.636Z,13.30
2018-05-16T22:45:35.311Z,13.30
2018-05-16T22:48:04.953Z,13.10
2018-05-16T22:50:36.970Z,13.10
2018-05-16T22:53:05.182Z,13.10
2018-05-16T22:55:34.070Z,12.90
2018-05-16T22:58:02.948Z,12.90
2018-05-16T23:00:31.365Z,12.80
2018-05-16T23:02:59.633Z,12.80
2018-05-16T23:05:27.732Z,12.80
2018-05-16T23:07:57.231Z,12.70
2018-05-16T23:10:25.324Z,12.70
2018-05-16T23:12:53.439Z,12.60
2018-05-16T23:15:22.340Z,12.50
2018-05-16T23:17:50.956Z,12.50
2018-05-16T23:20:19.469Z,12.50
2018-05-16T23:22:47.657Z,12.40
2018-05-16T23:25:15.810Z,12.30
2018-05-16T23:27:43.920Z,12.20
2018-05-16T23:30:12.824Z,12.00
2018-05-16T23:32:41.705Z,12.00
2018-05-16T23:35:09.817Z,12.00
2018-05-16T23:37:38.776Z,11.90
2018-05-16T23:40:07.647Z,11.70
2018-05-16T23:42:35.762Z,11.70
2018-05-16T23:45:04.012Z,11.70
2018-05-16T23:47:32.895Z,11.60
2018-05-16T23:50:03.363Z,11.60
2018-05-16T23:52:31.508Z,11.50
2018-05-16T23:55:01.706Z,11.40
2018-05-16T23:57:29.834Z,11.40
2018-05-16T23:59:58.098Z,11.40
